sensor_id;sensor_type;location;lat;lon;timestamp;P1;durP1;ratioP1;P2;durP2;ratioP2
4355;SDS011;64374;51.482;7.408;2023-04-15T00:01:08;10.43;;;6.30;;
4355;SDS011;64374;51.482;7.408;2023-04-15T00:03:37;7.30;;;6.00;;
4355;SDS011;64374;51.482;7.408;2023-04-15T00:06:09;9.80;;;6.27;;
4355;SDS011;64374;51.482;7.408;2023-04-15T00:08:38;8.53;;;5.50;;
4355;SDS011;64374;51.482;7.408;2023-04-15T00:11:08;9.50;;;5.57;;
4355;SDS011;64374;51.482;7.408;2023-04-15T00:13:39;10.50;;;5.77;;
4355;SDS011;64374;51.482;7.408;2023-04-15T00:16:07;9.53;;;6.00;;
4355;SDS011;64374;51.482;7.408;2023-04-15T00:18:37;12.87;;;6.43;;
4355;SDS011;64374;51.482;7.408;2023-04-15T00:21:05;10.73;;;7.60;;
4355;SDS011;64374;51.482;7.408;2023-04-15T00:23:36;11.27;;;7.23;;
4355;SDS011;64374;51.482;7.408;2023-04-15T00:26:06;12.10;;;7.47;;
4355;SDS011;64374;51.482;7.408;2023-04-15T00:28:35;11.03;;;6.83;;
4355;SDS011;64374;51.482;7.408;2023-04-15T00:31:04;11.03;;;7.10;;
4355;SDS011;64374;51.482;7.408;2023-04-15T00:33:33;10.30;;;7.63;;
4355;SDS011;64374;51.482;7.408;2023-04-15T00:36:03;12.97;;;8.50;;
4355;SDS011;64374;51.482;7.408;2023-04-15T00:38:36;9.83;;;7.93;;
4355;SDS011;64374;51.482;7.408;2023-04-15T00:41:06;12.47;;;6.50;;
4355;SDS011;64374;51.482;7.408;2023-04-15T00:43:36;12.53;;;8.70;;
4355;SDS011;64374;51.482;7.408;2023-04-15T00:46:05;9.70;;;7.87;;
4355;SDS011;64374;51.482;7.408;2023-04-15T00:48:35;9.20;;;7.90;;
4355;SDS011;64374;51.482;7.408;2023-04-15T00:51:05;9.60;;;7.23;;
4355;SDS011;64374;51.482;7.408;2023-04-15T00:53:35;9.80;;;8.63;;
4355;SDS011;64374;51.482;7.408;2023-04-15T00:56:05;10.47;;;7.70;;
4355;SDS011;64374;51.482;7.408;2023-04-15T00:58:34;14.30;;;7.43;;
4355;SDS011;64374;51.482;7.408;2023-04-15T01:01:03;9.50;;;7.60;;
4355;SDS011;64374;51.482;7.408;2023-04-15T01:03:32;13.17;;;8.40;;
4355;SDS011;64374;51.482;7.408;2023-04-15T01:06:01;11.90;;;7.30;;
4355;SDS011;64374;51.482;7.408;2023-04-15T01:08:30;11.43;;;7.50;;
4355;SDS011;64374;51.482;7.408;2023-04-15T01:11:00;16.23;;;8.07;;
4355;SDS011;64374;51.482;7.408;2023-04-15T01:13:31;12.70;;;7.73;;
4355;SDS011;64374;51.482;7.408;2023-04-15T01:16:03;10.60;;;7.60;;
4355;SDS011;64374;51.482;7.408;2023-04-15T01:18:32;10.13;;;7.67;;
4355;SDS011;64374;51.482;7.408;2023-04-15T01:21:01;10.73;;;7.70;;
4355;SDS011;64374;51.482;7.408;2023-04-15T01:23:31;12.57;;;7.20;;
4355;SDS011;64374;51.482;7.408;2023-04-15T01:26:07;10.80;;;7.73;;
4355;SDS011;64374;51.482;7.408;2023-04-15T01:28:38;11.03;;;7.20;;
4355;SDS011;64374;51.482;7.408;2023-04-15T01:31:07;9.77;;;7.50;;
4355;SDS011;64374;51.482;7.408;2023-04-15T01:33:38;9.53;;;7.40;;
4355;SDS011;64374;51.482;7.408;2023-04-15T01:36:26;10.83;;;6.83;;
4355;SDS011;64374;51.482;7.408;2023-04-15T01:38:55;11.97;;;7.90;;
4355;SDS011;64374;51.482;7.408;2023-04-15T01:41:26;10.67;;;8.00;;
4355;SDS011;64374;51.482;7.408;2023-04-15T01:43:59;11.07;;;8.13;;
4355;SDS011;64374;51.482;7.408;2023-04-15T01:46:28;13.43;;;8.07;;
4355;SDS011;64374;51.482;7.408;2023-04-15T01:48:59;14.60;;;9.00;;
4355;SDS011;64374;51.482;7.408;2023-04-15T01:51:30;9.37;;;6.60;;
4355;SDS011;64374;51.482;7.408;2023-04-15T01:53:59;15.07;;;8.80;;
4355;SDS011;64374;51.482;7.408;2023-04-15T01:56:30;13.53;;;8.50;;
4355;SDS011;64374;51.482;7.408;2023-04-15T01:58:59;7.87;;;7.07;;
4355;SDS011;64374;51.482;7.408;2023-04-15T02:01:27;9.30;;;7.70;;
4355;SDS011;64374;51.482;7.408;2023-04-15T02:03:58;9.50;;;8.33;;
4355;SDS011;64374;51.482;7.408;2023-04-15T02:06:26;12.40;;;8.57;;
4355;SDS011;64374;51.482;7.408;2023-04-15T02:08:55;13.63;;;8.30;;
4355;SDS011;64374;51.482;7.408;2023-04-15T02:11:26;11.47;;;8.63;;
4355;SDS011;64374;51.482;7.408;2023-04-15T02:13:56;13.60;;;8.10;;
4355;SDS011;64374;51.482;7.408;2023-04-15T02:16:24;10.63;;;8.90;;
4355;SDS011;64374;51.482;7.408;2023-04-15T02:18:53;12.13;;;7.47;;
4355;SDS011;64374;51.482;7.408;2023-04-15T02:21:22;11.30;;;8.70;;
4355;SDS011;64374;51.482;7.408;2023-04-15T02:23:53;10.43;;;8.00;;
4355;SDS011;64374;51.482;7.408;2023-04-15T02:26:21;11.57;;;8.80;;
4355;SDS011;64374;51.482;7.408;2023-04-15T02:28:53;14.00;;;9.83;;
4355;SDS011;64374;51.482;7.408;2023-04-15T02:31:23;10.47;;;8.63;;
4355;SDS011;64374;51.482;7.408;2023-04-15T02:33:52;15.50;;;9.27;;
4355;SDS011;64374;51.482;7.408;2023-04-15T02:36:20;19.17;;;11.40;;
4355;SDS011;64374;51.482;7.408;2023-04-15T02:38:49;11.67;;;7.80;;
4355;SDS011;64374;51.482;7.408;2023-04-15T02:41:18;15.13;;;9.77;;
4355;SDS011;64374;51.482;7.408;2023-04-15T02:43:48;20.50;;;10.93;;
4355;SDS011;64374;51.482;7.408;2023-04-15T02:46:17;15.20;;;10.20;;
4355;SDS011;64374;51.482;7.408;2023-04-15T02:48:46;11.90;;;8.57;;
4355;SDS011;64374;51.482;7.408;2023-04-15T02:51:15;12.83;;;9.50;;
4355;SDS011;64374;51.482;7.408;2023-04-15T02:53:45;16.57;;;10.23;;
4355;SDS011;64374;51.482;7.408;2023-04-15T02:56:14;14.60;;;9.00;;
4355;SDS011;64374;51.482;7.408;2023-04-15T02:58:44;15.43;;;9.93;;
4355;SDS011;64374;51.482;7.408;2023-04-15T03:01:16;19.03;;;8.63;;
4355;SDS011;64374;51.482;7.408;2023-04-15T03:03:47;10.83;;;8.20;;
4355;SDS011;64374;51.482;7.408;2023-04-15T03:06:16;12.13;;;8.23;;
4355;SDS011;64374;51.482;7.408;2023-04-15T03:08:48;9.70;;;7.63;;
4355;SDS011;64374;51.482;7.408;2023-04-15T03:11:18;13.33;;;8.50;;
4355;SDS011;64374;51.482;7.408;2023-04-15T03:13:46;14.80;;;10.40;;
4355;SDS011;64374;51.482;7.408;2023-04-15T03:16:25;14.43;;;9.23;;
4355;SDS011;64374;51.482;7.408;2023-04-15T03:18:54;10.40;;;8.13;;
4355;SDS011;64374;51.482;7.408;2023-04-15T03:21:23;12.40;;;10.20;;
4355;SDS011;64374;51.482;7.408;2023-04-15T03:23:52;12.07;;;9.40;;
4355;SDS011;64374;51.482;7.408;2023-04-15T03:26:23;12.53;;;8.87;;
4355;SDS011;64374;51.482;7.408;2023-04-15T03:28:55;13.20;;;9.13;;
4355;SDS011;64374;51.482;7.408;2023-04-15T03:31:24;13.03;;;8.60;;
4355;SDS011;64374;51.482;7.408;2023-04-15T03:33:54;13.90;;;9.60;;
4355;SDS011;64374;51.482;7.408;2023-04-15T03:36:23;10.67;;;8.90;;
4355;SDS011;64374;51.482;7.408;2023-04-15T03:38:51;12.77;;;9.77;;
4355;SDS011;64374;51.482;7.408;2023-04-15T03:41:21;10.50;;;8.83;;
4355;SDS011;64374;51.482;7.408;2023-04-15T03:43:52;11.27;;;9.70;;
4355;SDS011;64374;51.482;7.408;2023-04-15T03:46:21;11.27;;;8.30;;
4355;SDS011;64374;51.482;7.408;2023-04-15T03:48:52;10.40;;;8.27;;
4355;SDS011;64374;51.482;7.408;2023-04-15T03:51:22;10.77;;;8.10;;
4355;SDS011;64374;51.482;7.408;2023-04-15T03:53:50;14.10;;;8.43;;
4355;SDS011;64374;51.482;7.408;2023-04-15T03:56:18;14.90;;;8.93;;
4355;SDS011;64374;51.482;7.408;2023-04-15T03:58:47;12.13;;;8.20;;
4355;SDS011;64374;51.482;7.408;2023-04-15T04:01:17;9.37;;;8.37;;
4355;SDS011;64374;51.482;7.408;2023-04-15T04:03:45;11.90;;;8.20;;
4355;SDS011;64374;51.482;7.408;2023-04-15T04:06:14;16.00;;;9.70;;
4355;SDS011;64374;51.482;7.408;2023-04-15T04:08:45;8.87;;;7.77;;
4355;SDS011;64374;51.482;7.408;2023-04-15T04:11:14;14.53;;;9.97;;
4355;SDS011;64374;51.482;7.408;2023-04-15T04:13:42;9.97;;;8.20;;
4355;SDS011;64374;51.482;7.408;2023-04-15T04:16:11;9.40;;;8.03;;
4355;SDS011;64374;51.482;7.408;2023-04-15T04:18:40;11.40;;;8.50;;
4355;SDS011;64374;51.482;7.408;2023-04-15T04:21:08;10.67;;;8.43;;
4355;SDS011;64374;51.482;7.408;2023-04-15T04:23:37;12.97;;;8.00;;
4355;SDS011;64374;51.482;7.408;2023-04-15T04:26:07;12.93;;;8.40;;
4355;SDS011;64374;51.482;7.408;2023-04-15T04:28:37;14.33;;;7.73;;
4355;SDS011;64374;51.482;7.408;2023-04-15T04:31:06;10.73;;;8.50;;
4355;SDS011;64374;51.482;7.408;2023-04-15T04:33:35;10.57;;;8.50;;
4355;SDS011;64374;51.482;7.408;2023-04-15T04:36:03;11.80;;;10.53;;
4355;SDS011;64374;51.482;7.408;2023-04-15T04:38:33;13.30;;;9.50;;
4355;SDS011;64374;51.482;7.408;2023-04-15T04:41:03;16.70;;;9.03;;
4355;SDS011;64374;51.482;7.408;2023-04-15T04:43:33;10.50;;;8.87;;
4355;SDS011;64374;51.482;7.408;2023-04-15T04:46:01;9.87;;;8.80;;
4355;SDS011;64374;51.482;7.408;2023-04-15T04:48:32;14.43;;;8.40;;
4355;SDS011;64374;51.482;7.408;2023-04-15T04:51:00;13.87;;;8.67;;
4355;SDS011;64374;51.482;7.408;2023-04-15T04:53:28;12.83;;;8.07;;
4355;SDS011;64374;51.482;7.408;2023-04-15T04:55:56;11.03;;;8.20;;
4355;SDS011;64374;51.482;7.408;2023-04-15T04:58:25;13.97;;;9.13;;
4355;SDS011;64374;51.482;7.408;2023-04-15T05:00:54;12.70;;;7.60;;
4355;SDS011;64374;51.482;7.408;2023-04-15T05:03:24;13.03;;;9.60;;
4355;SDS011;64374;51.482;7.408;2023-04-15T05:05:52;18.33;;;9.97;;
4355;SDS011;64374;51.482;7.408;2023-04-15T05:08:21;11.37;;;7.87;;
4355;SDS011;64374;51.482;7.408;2023-04-15T05:10:49;9.07;;;8.17;;
4355;SDS011;64374;51.482;7.408;2023-04-15T05:13:18;10.70;;;8.60;;
4355;SDS011;64374;51.482;7.408;2023-04-15T05:15:47;14.80;;;10.17;;
4355;SDS011;64374;51.482;7.408;2023-04-15T05:18:16;12.67;;;9.87;;
4355;SDS011;64374;51.482;7.408;2023-04-15T05:20:44;11.80;;;8.87;;
4355;SDS011;64374;51.482;7.408;2023-04-15T05:23:15;12.20;;;9.37;;
4355;SDS011;64374;51.482;7.408;2023-04-15T05:25:44;12.50;;;8.87;;
4355;SDS011;64374;51.482;7.408;2023-04-15T05:28:15;12.83;;;8.00;;
4355;SDS011;64374;51.482;7.408;2023-04-15T05:30:43;11.10;;;7.90;;
4355;SDS011;64374;51.482;7.408;2023-04-15T05:33:12;13.20;;;9.53;;
4355;SDS011;64374;51.482;7.408;2023-04-15T05:35:42;10.60;;;8.50;;
4355;SDS011;64374;51.482;7.408;2023-04-15T05:38:11;10.33;;;7.43;;
4355;SDS011;64374;51.482;7.408;2023-04-15T05:40:40;10.73;;;9.37;;
4355;SDS011;64374;51.482;7.408;2023-04-15T05:43:08;12.67;;;10.83;;
4355;SDS011;64374;51.482;7.408;2023-04-15T05:45:38;14.80;;;10.00;;
4355;SDS011;64374;51.482;7.408;2023-04-15T05:48:07;13.27;;;10.20;;
4355;SDS011;64374;51.482;7.408;2023-04-15T05:50:37;10.63;;;9.07;;
4355;SDS011;64374;51.482;7.408;2023-04-15T05:53:08;12.80;;;8.53;;
4355;SDS011;64374;51.482;7.408;2023-04-15T05:55:38;14.80;;;11.17;;
4355;SDS011;64374;51.482;7.408;2023-04-15T05:58:06;13.13;;;11.03;;
4355;SDS011;64374;51.482;7.408;2023-04-15T06:00:34;15.67;;;11.37;;
4355;SDS011;64374;51.482;7.408;2023-04-15T06:03:02;13.17;;;9.83;;
4355;SDS011;64374;51.482;7.408;2023-04-15T06:05:34;15.90;;;10.33;;
4355;SDS011;64374;51.482;7.408;2023-04-15T06:08:05;12.97;;;10.10;;
4355;SDS011;64374;51.482;7.408;2023-04-15T06:10:35;15.50;;;9.50;;
4355;SDS011;64374;51.482;7.408;2023-04-15T06:13:03;15.40;;;10.13;;
4355;SDS011;64374;51.482;7.408;2023-04-15T06:15:32;15.13;;;10.10;;
4355;SDS011;64374;51.482;7.408;2023-04-15T06:18:00;13.53;;;9.20;;
4355;SDS011;64374;51.482;7.408;2023-04-15T06:20:29;13.73;;;11.50;;
4355;SDS011;64374;51.482;7.408;2023-04-15T06:22:58;13.27;;;10.03;;
4355;SDS011;64374;51.482;7.408;2023-04-15T06:25:27;13.90;;;9.47;;
4355;SDS011;64374;51.482;7.408;2023-04-15T06:27:57;13.40;;;9.37;;
4355;SDS011;64374;51.482;7.408;2023-04-15T06:30:25;13.10;;;9.43;;
4355;SDS011;64374;51.482;7.408;2023-04-15T06:32:57;14.33;;;10.70;;
4355;SDS011;64374;51.482;7.408;2023-04-15T06:35:26;22.30;;;12.27;;
4355;SDS011;64374;51.482;7.408;2023-04-15T06:37:54;15.00;;;11.97;;
4355;SDS011;64374;51.482;7.408;2023-04-15T06:40:23;17.33;;;13.53;;
4355;SDS011;64374;51.482;7.408;2023-04-15T06:42:52;19.20;;;14.13;;
4355;SDS011;64374;51.482;7.408;2023-04-15T06:45:22;20.70;;;14.63;;
4355;SDS011;64374;51.482;7.408;2023-04-15T06:47:50;19.43;;;11.53;;
4355;SDS011;64374;51.482;7.408;2023-04-15T06:50:18;22.20;;;13.37;;
4355;SDS011;64374;51.482;7.408;2023-04-15T06:52:46;15.33;;;13.67;;
4355;SDS011;64374;51.482;7.408;2023-04-15T06:55:15;20.40;;;13.83;;
4355;SDS011;64374;51.482;7.408;2023-04-15T06:57:44;17.13;;;13.33;;
4355;SDS011;64374;51.482;7.408;2023-04-15T07:00:12;16.23;;;10.90;;
4355;SDS011;64374;51.482;7.408;2023-04-15T07:02:43;17.83;;;13.70;;
4355;SDS011;64374;51.482;7.408;2023-04-15T07:05:14;18.53;;;13.63;;
4355;SDS011;64374;51.482;7.408;2023-04-15T07:08:02;23.83;;;14.80;;
4355;SDS011;64374;51.482;7.408;2023-04-15T07:10:32;20.60;;;13.30;;
4355;SDS011;64374;51.482;7.408;2023-04-15T07:13:02;16.37;;;13.67;;
4355;SDS011;64374;51.482;7.408;2023-04-15T07:15:30;16.50;;;12.13;;
4355;SDS011;64374;51.482;7.408;2023-04-15T07:18:00;20.27;;;14.47;;
4355;SDS011;64374;51.482;7.408;2023-04-15T07:20:32;15.50;;;12.10;;
4355;SDS011;64374;51.482;7.408;2023-04-15T07:23:00;18.67;;;13.13;;
4355;SDS011;64374;51.482;7.408;2023-04-15T07:25:28;16.83;;;11.60;;
4355;SDS011;64374;51.482;7.408;2023-04-15T07:27:57;15.77;;;12.07;;
4355;SDS011;64374;51.482;7.408;2023-04-15T07:30:25;15.83;;;11.57;;
4355;SDS011;64374;51.482;7.408;2023-04-15T07:32:58;15.47;;;11.80;;
4355;SDS011;64374;51.482;7.408;2023-04-15T07:35:30;16.20;;;10.93;;
4355;SDS011;64374;51.482;7.408;2023-04-15T07:38:03;12.70;;;10.10;;
4355;SDS011;64374;51.482;7.408;2023-04-15T07:40:32;20.97;;;11.47;;
4355;SDS011;64374;51.482;7.408;2023-04-15T07:43:03;13.83;;;10.37;;
4355;SDS011;64374;51.482;7.408;2023-04-15T07:45:31;15.40;;;10.10;;
4355;SDS011;64374;51.482;7.408;2023-04-15T07:47:59;13.83;;;9.77;;
4355;SDS011;64374;51.482;7.408;2023-04-15T07:50:29;14.47;;;9.90;;
4355;SDS011;64374;51.482;7.408;2023-04-15T07:52:58;18.10;;;10.40;;
4355;SDS011;64374;51.482;7.408;2023-04-15T07:55:26;11.03;;;9.73;;
4355;SDS011;64374;51.482;7.408;2023-04-15T07:57:57;12.10;;;9.93;;
4355;SDS011;64374;51.482;7.408;2023-04-15T08:00:25;10.87;;;8.60;;
4355;SDS011;64374;51.482;7.408;2023-04-15T08:02:55;12.77;;;9.80;;
4355;SDS011;64374;51.482;7.408;2023-04-15T08:05:25;12.27;;;9.90;;
4355;SDS011;64374;51.482;7.408;2023-04-15T08:07:55;12.77;;;10.20;;
4355;SDS011;64374;51.482;7.408;2023-04-15T08:10:24;12.97;;;9.20;;
4355;SDS011;64374;51.482;7.408;2023-04-15T08:12:53;13.67;;;9.73;;
4355;SDS011;64374;51.482;7.408;2023-04-15T08:15:22;12.23;;;9.07;;
4355;SDS011;64374;51.482;7.408;2023-04-15T08:17:50;12.50;;;9.40;;
4355;SDS011;64374;51.482;7.408;2023-04-15T08:20:18;11.57;;;7.90;;
4355;SDS011;64374;51.482;7.408;2023-04-15T08:22:47;14.90;;;9.70;;
4355;SDS011;64374;51.482;7.408;2023-04-15T08:25:18;10.20;;;8.70;;
4355;SDS011;64374;51.482;7.408;2023-04-15T08:27:47;13.20;;;8.93;;
4355;SDS011;64374;51.482;7.408;2023-04-15T08:30:37;14.97;;;9.37;;
4355;SDS011;64374;51.482;7.408;2023-04-15T08:33:06;9.90;;;6.87;;
4355;SDS011;64374;51.482;7.408;2023-04-15T08:35:35;12.17;;;7.30;;
4355;SDS011;64374;51.482;7.408;2023-04-15T08:38:04;10.50;;;7.53;;
4355;SDS011;64374;51.482;7.408;2023-04-15T08:40:39;9.67;;;7.27;;
4355;SDS011;64374;51.482;7.408;2023-04-15T08:43:09;8.00;;;7.00;;
4355;SDS011;64374;51.482;7.408;2023-04-15T08:45:40;9.87;;;7.43;;
4355;SDS011;64374;51.482;7.408;2023-04-15T08:48:09;10.37;;;8.10;;
4355;SDS011;64374;51.482;7.408;2023-04-15T08:50:42;9.93;;;7.67;;
4355;SDS011;64374;51.482;7.408;2023-04-15T08:53:11;11.40;;;7.63;;
4355;SDS011;64374;51.482;7.408;2023-04-15T08:55:43;9.77;;;7.50;;
4355;SDS011;64374;51.482;7.408;2023-04-15T08:58:12;10.13;;;7.50;;
4355;SDS011;64374;51.482;7.408;2023-04-15T09:00:41;12.30;;;8.03;;
4355;SDS011;64374;51.482;7.408;2023-04-15T09:03:10;9.67;;;7.40;;
4355;SDS011;64374;51.482;7.408;2023-04-15T09:05:38;11.33;;;7.87;;
4355;SDS011;64374;51.482;7.408;2023-04-15T09:08:06;8.20;;;6.83;;
4355;SDS011;64374;51.482;7.408;2023-04-15T09:10:35;11.67;;;7.40;;
4355;SDS011;64374;51.482;7.408;2023-04-15T09:13:05;9.30;;;7.50;;
4355;SDS011;64374;51.482;7.408;2023-04-15T09:15:33;9.43;;;7.03;;
4355;SDS011;64374;51.482;7.408;2023-04-15T09:18:07;9.73;;;6.90;;
4355;SDS011;64374;51.482;7.408;2023-04-15T09:20:39;6.90;;;6.20;;
4355;SDS011;64374;51.482;7.408;2023-04-15T09:23:12;8.83;;;7.13;;
4355;SDS011;64374;51.482;7.408;2023-04-15T09:25:40;10.13;;;7.77;;
4355;SDS011;64374;51.482;7.408;2023-04-15T09:28:11;8.53;;;6.80;;
4355;SDS011;64374;51.482;7.408;2023-04-15T09:30:41;6.90;;;5.97;;
4355;SDS011;64374;51.482;7.408;2023-04-15T09:33:13;8.47;;;6.60;;
4355;SDS011;64374;51.482;7.408;2023-04-15T09:35:41;8.50;;;7.00;;
4355;SDS011;64374;51.482;7.408;2023-04-15T09:38:23;9.20;;;7.10;;
4355;SDS011;64374;51.482;7.408;2023-04-15T09:40:51;10.60;;;6.83;;
4355;SDS011;64374;51.482;7.408;2023-04-15T09:43:21;9.67;;;7.30;;
4355;SDS011;64374;51.482;7.408;2023-04-15T09:45:51;9.67;;;6.80;;
4355;SDS011;64374;51.482;7.408;2023-04-15T09:48:21;11.87;;;8.73;;
4355;SDS011;64374;51.482;7.408;2023-04-15T09:50:52;8.73;;;6.90;;
4355;SDS011;64374;51.482;7.408;2023-04-15T09:53:21;9.27;;;7.53;;
4355;SDS011;64374;51.482;7.408;2023-04-15T09:55:51;12.67;;;7.93;;
4355;SDS011;64374;51.482;7.408;2023-04-15T09:58:22;8.17;;;7.27;;
4355;SDS011;64374;51.482;7.408;2023-04-15T10:00:52;7.97;;;6.80;;
4355;SDS011;64374;51.482;7.408;2023-04-15T10:03:23;9.57;;;8.10;;
4355;SDS011;64374;51.482;7.408;2023-04-15T10:05:57;10.27;;;7.40;;
4355;SDS011;64374;51.482;7.408;2023-04-15T10:08:28;10.63;;;8.27;;
4355;SDS011;64374;51.482;7.408;2023-04-15T10:11:00;10.10;;;7.43;;
4355;SDS011;64374;51.482;7.408;2023-04-15T10:13:31;9.30;;;8.37;;
4355;SDS011;64374;51.482;7.408;2023-04-15T10:16:03;11.20;;;8.17;;
4355;SDS011;64374;51.482;7.408;2023-04-15T10:18:33;10.43;;;7.30;;
4355;SDS011;64374;51.482;7.408;2023-04-15T10:21:04;8.70;;;6.83;;
4355;SDS011;64374;51.482;7.408;2023-04-15T10:23:35;9.20;;;7.00;;
4355;SDS011;64374;51.482;7.408;2023-04-15T10:26:05;9.57;;;7.07;;
4355;SDS011;64374;51.482;7.408;2023-04-15T10:28:35;8.47;;;7.20;;
4355;SDS011;64374;51.482;7.408;2023-04-15T10:31:04;8.60;;;6.93;;
4355;SDS011;64374;51.482;7.408;2023-04-15T10:33:34;9.53;;;7.77;;
4355;SDS011;64374;51.482;7.408;2023-04-15T10:36:04;9.33;;;7.60;;
4355;SDS011;64374;51.482;7.408;2023-04-15T10:38:34;8.77;;;6.90;;
4355;SDS011;64374;51.482;7.408;2023-04-15T10:43:54;10.30;;;6.83;;
4355;SDS011;64374;51.482;7.408;2023-04-15T10:46:28;7.57;;;6.33;;
4355;SDS011;64374;51.482;7.408;2023-04-15T10:49:06;8.57;;;6.20;;
4355;SDS011;64374;51.482;7.408;2023-04-15T10:51:38;8.17;;;6.67;;
4355;SDS011;64374;51.482;7.408;2023-04-15T10:54:12;9.27;;;6.10;;
4355;SDS011;64374;51.482;7.408;2023-04-15T10:56:42;8.40;;;5.87;;
4355;SDS011;64374;51.482;7.408;2023-04-15T10:59:12;8.17;;;5.70;;
4355;SDS011;64374;51.482;7.408;2023-04-15T11:01:49;7.07;;;5.60;;
4355;SDS011;64374;51.482;7.408;2023-04-15T11:07:33;9.37;;;6.00;;
4355;SDS011;64374;51.482;7.408;2023-04-15T11:10:03;5.70;;;5.10;;
4355;SDS011;64374;51.482;7.408;2023-04-15T11:13:06;7.90;;;6.57;;
4355;SDS011;64374;51.482;7.408;2023-04-15T11:15:44;11.00;;;5.90;;
4355;SDS011;64374;51.482;7.408;2023-04-15T11:18:35;8.13;;;6.40;;
4355;SDS011;64374;51.482;7.408;2023-04-15T11:21:04;13.00;;;5.47;;
4355;SDS011;64374;51.482;7.408;2023-04-15T11:23:37;7.30;;;5.50;;
4355;SDS011;64374;51.482;7.408;2023-04-15T11:26:07;7.23;;;5.83;;
4355;SDS011;64374;51.482;7.408;2023-04-15T11:28:38;8.07;;;6.23;;
4355;SDS011;64374;51.482;7.408;2023-04-15T11:31:30;5.90;;;5.00;;
4355;SDS011;64374;51.482;7.408;2023-04-15T11:33:59;8.63;;;5.40;;
4355;SDS011;64374;51.482;7.408;2023-04-15T11:36:29;8.70;;;6.50;;
4355;SDS011;64374;51.482;7.408;2023-04-15T11:38:58;6.70;;;5.60;;
4355;SDS011;64374;51.482;7.408;2023-04-15T11:41:27;8.47;;;6.63;;
4355;SDS011;64374;51.482;7.408;2023-04-15T11:43:58;7.03;;;6.03;;
4355;SDS011;64374;51.482;7.408;2023-04-15T11:46:28;10.13;;;6.70;;
4355;SDS011;64374;51.482;7.408;2023-04-15T11:49:02;6.60;;;5.83;;
4355;SDS011;64374;51.482;7.408;2023-04-15T11:51:31;8.50;;;6.27;;
4355;SDS011;64374;51.482;7.408;2023-04-15T11:54:00;6.67;;;5.20;;
4355;SDS011;64374;51.482;7.408;2023-04-15T11:56:30;6.77;;;6.00;;
4355;SDS011;64374;51.482;7.408;2023-04-15T11:58:58;10.80;;;7.23;;
4355;SDS011;64374;51.482;7.408;2023-04-15T12:01:30;7.10;;;5.93;;
4355;SDS011;64374;51.482;7.408;2023-04-15T12:04:00;8.47;;;6.20;;
4355;SDS011;64374;51.482;7.408;2023-04-15T12:06:31;9.00;;;6.90;;
4355;SDS011;64374;51.482;7.408;2023-04-15T12:09:04;7.50;;;5.60;;
4355;SDS011;64374;51.482;7.408;2023-04-15T12:11:45;7.15;;;5.40;;
4355;SDS011;64374;51.482;7.408;2023-04-15T12:14:19;7.50;;;6.00;;
4355;SDS011;64374;51.482;7.408;2023-04-15T12:16:52;9.07;;;7.40;;
4355;SDS011;64374;51.482;7.408;2023-04-15T12:19:26;6.17;;;5.13;;
4355;SDS011;64374;51.482;7.408;2023-04-15T12:21:57;7.47;;;6.13;;
4355;SDS011;64374;51.482;7.408;2023-04-15T12:24:27;6.27;;;5.40;;
4355;SDS011;64374;51.482;7.408;2023-04-15T12:27:01;9.30;;;6.77;;
4355;SDS011;64374;51.482;7.408;2023-04-15T12:29:30;8.73;;;6.43;;
4355;SDS011;64374;51.482;7.408;2023-04-15T12:32:03;9.20;;;6.63;;
4355;SDS011;64374;51.482;7.408;2023-04-15T12:34:35;8.53;;;5.57;;
4355;SDS011;64374;51.482;7.408;2023-04-15T12:37:05;7.83;;;5.83;;
4355;SDS011;64374;51.482;7.408;2023-04-15T12:39:36;7.70;;;5.73;;
4355;SDS011;64374;51.482;7.408;2023-04-15T12:42:07;7.00;;;5.60;;
4355;SDS011;64374;51.482;7.408;2023-04-15T12:44:37;6.63;;;5.40;;
4355;SDS011;64374;51.482;7.408;2023-04-15T12:47:07;14.13;;;6.43;;
4355;SDS011;64374;51.482;7.408;2023-04-15T12:49:37;8.60;;;6.60;;
4355;SDS011;64374;51.482;7.408;2023-04-15T12:52:06;7.50;;;5.60;;
4355;SDS011;64374;51.482;7.408;2023-04-15T12:54:37;13.33;;;5.80;;
4355;SDS011;64374;51.482;7.408;2023-04-15T12:57:06;7.00;;;5.70;;
4355;SDS011;64374;51.482;7.408;2023-04-15T12:59:36;9.50;;;5.27;;
4355;SDS011;64374;51.482;7.408;2023-04-15T13:02:04;8.30;;;5.00;;
4355;SDS011;64374;51.482;7.408;2023-04-15T13:04:32;6.90;;;5.90;;
4355;SDS011;64374;51.482;7.408;2023-04-15T13:07:02;6.73;;;5.40;;
4355;SDS011;64374;51.482;7.408;2023-04-15T13:09:31;6.10;;;5.10;;
4355;SDS011;64374;51.482;7.408;2023-04-15T13:11:59;6.37;;;4.60;;
4355;SDS011;64374;51.482;7.408;2023-04-15T13:14:29;7.87;;;4.67;;
4355;SDS011;64374;51.482;7.408;2023-04-15T13:16:58;5.80;;;4.90;;
4355;SDS011;64374;51.482;7.408;2023-04-15T13:19:26;6.90;;;4.87;;
4355;SDS011;64374;51.482;7.408;2023-04-15T13:21:54;5.67;;;4.67;;
4355;SDS011;64374;51.482;7.408;2023-04-15T13:24:23;5.67;;;4.37;;
4355;SDS011;64374;51.482;7.408;2023-04-15T13:26:52;6.97;;;4.17;;
4355;SDS011;64374;51.482;7.408;2023-04-15T13:29:22;4.40;;;3.53;;
4355;SDS011;64374;51.482;7.408;2023-04-15T13:31:50;6.13;;;3.83;;
4355;SDS011;64374;51.482;7.408;2023-04-15T13:34:18;5.97;;;4.47;;
4355;SDS011;64374;51.482;7.408;2023-04-15T13:36:47;5.57;;;4.10;;
4355;SDS011;64374;51.482;7.408;2023-04-15T13:39:17;6.20;;;4.37;;
4355;SDS011;64374;51.482;7.408;2023-04-15T13:41:53;4.87;;;3.90;;
4355;SDS011;64374;51.482;7.408;2023-04-15T13:44:24;4.23;;;3.70;;
4355;SDS011;64374;51.482;7.408;2023-04-15T13:46:52;5.80;;;4.60;;
4355;SDS011;64374;51.482;7.408;2023-04-15T13:49:21;6.17;;;4.60;;
4355;SDS011;64374;51.482;7.408;2023-04-15T13:51:49;5.20;;;4.30;;
4355;SDS011;64374;51.482;7.408;2023-04-15T13:54:18;4.70;;;3.73;;
4355;SDS011;64374;51.482;7.408;2023-04-15T13:56:46;5.63;;;4.40;;
4355;SDS011;64374;51.482;7.408;2023-04-15T13:59:16;6.87;;;4.17;;
4355;SDS011;64374;51.482;7.408;2023-04-15T14:01:45;4.40;;;4.00;;
4355;SDS011;64374;51.482;7.408;2023-04-15T14:04:15;5.70;;;4.23;;
4355;SDS011;64374;51.482;7.408;2023-04-15T14:06:45;3.93;;;3.53;;
4355;SDS011;64374;51.482;7.408;2023-04-15T14:09:13;4.40;;;3.23;;
4355;SDS011;64374;51.482;7.408;2023-04-15T14:11:42;8.07;;;3.40;;
4355;SDS011;64374;51.482;7.408;2023-04-15T14:14:10;3.90;;;3.23;;
4355;SDS011;64374;51.482;7.408;2023-04-15T14:16:43;4.70;;;3.30;;
4355;SDS011;64374;51.482;7.408;2023-04-15T14:19:11;4.40;;;4.00;;
4355;SDS011;64374;51.482;7.408;2023-04-15T14:21:40;5.10;;;3.80;;
4355;SDS011;64374;51.482;7.408;2023-04-15T14:24:09;6.67;;;4.23;;
4355;SDS011;64374;51.482;7.408;2023-04-15T14:26:38;5.90;;;2.90;;
4355;SDS011;64374;51.482;7.408;2023-04-15T14:29:06;4.23;;;3.73;;
4355;SDS011;64374;51.482;7.408;2023-04-15T14:31:34;3.60;;;3.30;;
4355;SDS011;64374;51.482;7.408;2023-04-15T14:34:06;3.27;;;2.97;;
4355;SDS011;64374;51.482;7.408;2023-04-15T14:36:34;4.40;;;4.00;;
4355;SDS011;64374;51.482;7.408;2023-04-15T14:39:02;4.20;;;3.77;;
4355;SDS011;64374;51.482;7.408;2023-04-15T14:41:31;5.80;;;4.33;;
4355;SDS011;64374;51.482;7.408;2023-04-15T14:43:59;5.37;;;4.33;;
4355;SDS011;64374;51.482;7.408;2023-04-15T14:46:28;8.50;;;5.27;;
4355;SDS011;64374;51.482;7.408;2023-04-15T14:48:57;3.70;;;3.40;;
4355;SDS011;64374;51.482;7.408;2023-04-15T14:51:27;7.73;;;6.20;;
4355;SDS011;64374;51.482;7.408;2023-04-15T14:53:55;4.07;;;3.37;;
4355;SDS011;64374;51.482;7.408;2023-04-15T14:56:23;5.50;;;4.70;;
4355;SDS011;64374;51.482;7.408;2023-04-15T14:58:51;2.80;;;2.50;;
4355;SDS011;64374;51.482;7.408;2023-04-15T15:01:20;3.90;;;2.60;;
4355;SDS011;64374;51.482;7.408;2023-04-15T15:03:48;3.67;;;2.47;;
4355;SDS011;64374;51.482;7.408;2023-04-15T15:06:19;6.17;;;3.40;;
4355;SDS011;64374;51.482;7.408;2023-04-15T15:08:49;5.13;;;2.70;;
4355;SDS011;64374;51.482;7.408;2023-04-15T15:11:18;8.80;;;4.30;;
4355;SDS011;64374;51.482;7.408;2023-04-15T15:13:46;3.30;;;3.00;;
4355;SDS011;64374;51.482;7.408;2023-04-15T15:16:16;4.33;;;3.20;;